Vieux-Fort の空港の天気 - METARとTAF

ヘウノラ国際空港 ( TLPL / UVF ) - セントルシア Vieux-Fort
飛行場実況気象(Metar)
観測時間08/18 13:00 AST (08/18 17:00 UTC)
風向・風速東 8m/s
視程10km以上
天気現象
全天の8割程度の雲 雲底高度 850m
気温31℃
湿度66%
気圧1012hPa
METARTLPL 181700Z 08016KT 9999 BKN028 31/24 Q1012 NOSIG
過去の天気等 Google飛行場航空写真 Wunderground天気予報

過去48時間のMETAR

飛行場予報(TAF)
発表時間: 8/18 07:02 AST (8/18 11:02 UTC)
予報対象時間: 18日8時 AST ~ 19日8時 AST
風向・風速東 8m/s
視程10km以上
全天の4割程度の雲 雲底高度 760m
18日8時 AST ~ 18日11時 AST に一時的に
視程5000m
天気現象しゅう雨
全天の8割程度の雲 雲底高度 460m
全天の8割程度の雲 雲底高度 1220m
TAF TLPL 181102Z 1812/1912 08016KT 9999 SCT025
TEMPO 1812/1815 5000 SHRA BKN015 BKN040